Time;durP1;ratioP1;P1;durP2;ratioP2;P2;SDS_P1;SDS_P2;PMS_P1;PMS_P2;Temp;Humidity;BMP_temperature;BMP_pressure;BME280_temperature;BME280_humidity;BME280_pressure;Samples;Min_cycle;Max_cycle;Signal;HPM_P1;HPM_P2
2022/02/26 00:00:19;;;;;;;;;17.75;17.75;;;;;;;;4993819;28;45493;-74
2022/02/26 00:02:45;;;;;;;;;21.00;16.25;;;;;;;;4993687;28;45553;-74
2022/02/26 00:05:10;;;;;;;;;23.25;17.00;;;;;;;;4994091;28;45497;-74
2022/02/26 00:07:35;;;;;;;;;15.75;14.25;;;;;;;;4993538;28;46001;-74
2022/02/26 00:10:01;;;;;;;;;21.00;17.00;;;;;;;;4993344;28;45415;-74
2022/02/26 00:12:26;;;;;;;;;21.75;18.50;;;;;;;;4993732;28;45492;-74
2022/02/26 00:14:51;;;;;;;;;20.00;16.25;;;;;;;;4993773;28;45391;-74
2022/02/26 00:17:16;;;;;;;;;21.50;17.75;;;;;;;;4993886;28;46902;-74
2022/02/26 00:19:42;;;;;;;;;20.75;17.75;;;;;;;;4993008;28;45481;-72
2022/02/26 00:22:07;;;;;;;;;19.75;19.75;;;;;;;;4992812;28;45520;-72
2022/02/26 00:24:32;;;;;;;;;20.50;17.00;;;;;;;;4993238;28;45424;-73
2022/02/26 00:26:57;;;;;;;;;15.25;14.25;;;;;;;;4993399;28;47145;-75
2022/02/26 00:29:23;;;;;;;;;15.25;14.25;;;;;;;;4993677;28;45372;-75
2022/02/26 00:31:48;;;;;;;;;15.00;13.50;;;;;;;;4993538;28;45347;-74
2022/02/26 00:34:13;;;;;;;;;14.50;12.00;;;;;;;;4993197;28;45389;-74
2022/02/26 00:36:38;;;;;;;;;11.00;11.00;;;;;;;;4975682;28;46928;-73
2022/02/26 00:39:04;;;;;;;;;13.00;13.00;;;;;;;;4993905;28;45444;-74
2022/02/26 00:41:29;;;;;;;;;15.25;11.00;;;;;;;;4994474;28;45779;-74
2022/02/26 00:43:54;;;;;;;;;20.00;14.50;;;;;;;;4996866;28;45545;-73
2022/02/26 00:46:20;;;;;;;;;19.75;15.00;;;;;;;;4996456;28;45550;-76
2022/02/26 00:51:28;;;;;;;;;14.00;12.50;;;;;;;;4996820;28;45448;-74
2022/02/26 00:53:54;;;;;;;;;13.50;12.75;;;;;;;;4996714;28;45525;-73
2022/02/26 00:56:19;;;;;;;;;16.75;12.00;;;;;;;;4997366;28;46355;-74
2022/02/26 00:58:44;;;;;;;;;12.00;10.75;;;;;;;;5011558;28;45478;-74
2022/02/26 01:01:09;;;;;;;;;14.00;12.50;;;;;;;;4996401;28;45310;-73
2022/02/26 01:03:35;;;;;;;;;20.00;15.25;;;;;;;;4996030;28;45496;-74
2022/02/26 01:06:00;;;;;;;;;15.50;13.25;;;;;;;;4996453;28;46073;-74
2022/02/26 01:08:25;;;;;;;;;17.00;13.50;;;;;;;;4996826;28;45401;-74
2022/02/26 01:10:50;;;;;;;;;16.00;13.00;;;;;;;;4995906;28;45510;-74
2022/02/26 01:13:16;;;;;;;;;10.50;10.50;;;;;;;;4996189;28;45521;-73
2022/02/26 01:15:41;;;;;;;;;16.75;12.75;;;;;;;;4996002;28;46848;-73
2022/02/26 01:18:06;;;;;;;;;13.50;11.00;;;;;;;;4995861;28;45337;-73
2022/02/26 01:20:31;;;;;;;;;19.25;13.75;;;;;;;;4996356;28;45409;-72
2022/02/26 01:22:56;;;;;;;;;16.00;11.75;;;;;;;;4996635;28;45366;-72
2022/02/26 01:25:22;;;;;;;;;20.00;14.25;;;;;;;;4995968;28;46346;-73
2022/02/26 01:27:47;;;;;;;;;16.50;14.50;;;;;;;;4995775;28;45430;-72
2022/02/26 01:30:12;;;;;;;;;14.75;14.25;;;;;;;;4996270;28;45567;-73
2022/02/26 01:32:40;;;;;;;;;17.00;15.50;;;;;;;;4995596;28;45482;-72
2022/02/26 01:35:05;;;;;;;;;14.25;11.00;;;;;;;;4996437;28;46249;-72
2022/02/26 01:37:31;;;;;;;;;22.25;15.75;;;;;;;;4996131;28;45365;-72
2022/02/26 01:39:56;;;;;;;;;17.75;13.25;;;;;;;;4996053;28;45375;-73
2022/02/26 01:42:21;;;;;;;;;19.00;15.75;;;;;;;;4995798;28;45485;-74
2022/02/26 01:44:47;;;;;;;;;20.00;14.75;;;;;;;;4995511;28;45467;-74
2022/02/26 01:47:13;;;;;;;;;13.50;12.00;;;;;;;;4995741;28;45281;-73
2022/02/26 01:49:38;;;;;;;;;19.75;15.75;;;;;;;;4995503;28;45188;-74
2022/02/26 01:52:03;;;;;;;;;16.25;15.25;;;;;;;;4995669;28;45448;-74
2022/02/26 01:54:30;;;;;;;;;17.75;14.00;;;;;;;;4995119;28;46285;-74
2022/02/26 01:56:55;;;;;;;;;23.00;19.00;;;;;;;;4995833;28;48518;-74
2022/02/26 01:59:21;;;;;;;;;20.75;16.00;;;;;;;;4996324;28;45404;-74
2022/02/26 02:01:46;;;;;;;;;20.50;17.75;;;;;;;;4994875;28;45450;-74
2022/02/26 02:04:11;;;;;;;;;24.25;19.75;;;;;;;;4995278;28;45464;-74
2022/02/26 02:06:37;;;;;;;;;20.00;17.50;;;;;;;;4995392;28;45613;-73
2022/02/26 02:09:02;;;;;;;;;17.00;15.75;;;;;;;;4995228;28;45515;-73
2022/02/26 02:11:28;;;;;;;;;19.00;16.75;;;;;;;;4995508;28;45481;-73
2022/02/26 02:13:54;;;;;;;;;19.75;16.00;;;;;;;;4995470;28;46384;-74
2022/02/26 02:16:19;;;;;;;;;21.00;19.75;;;;;;;;4995041;28;45497;-73
2022/02/26 02:18:44;;;;;;;;;24.50;18.50;;;;;;;;4995521;28;45423;-73
2022/02/26 02:21:09;;;;;;;;;18.50;18.00;;;;;;;;4995255;28;45544;-73
2022/02/26 02:23:35;;;;;;;;;20.75;18.75;;;;;;;;4995521;28;47707;-73
2022/02/26 02:26:00;;;;;;;;;20.50;18.00;;;;;;;;4995602;28;45384;-72
2022/02/26 02:28:25;;;;;;;;;24.00;19.50;;;;;;;;4995359;28;45441;-72
2022/02/26 02:30:51;;;;;;;;;18.00;15.75;;;;;;;;4994941;28;45486;-74
2022/02/26 02:33:16;;;;;;;;;20.50;18.00;;;;;;;;4994826;28;45345;-73
2022/02/26 02:35:42;;;;;;;;;26.25;19.25;;;;;;;;4995146;28;45663;-72
2022/02/26 02:38:08;;;;;;;;;17.25;14.25;;;;;;;;4995877;28;45314;-73
2022/02/26 02:40:34;;;;;;;;;18.50;16.75;;;;;;;;4994799;28;45519;-74
2022/02/26 02:42:59;;;;;;;;;23.50;20.50;;;;;;;;4994867;28;45349;-73
2022/02/26 02:45:25;;;;;;;;;19.25;16.25;;;;;;;;4994603;28;45516;-72
2022/02/26 02:47:50;;;;;;;;;22.00;17.75;;;;;;;;4994979;28;45409;-73
2022/02/26 02:50:16;;;;;;;;;23.00;19.75;;;;;;;;4995498;28;45458;-73
2022/02/26 02:52:42;;;;;;;;;24.25;21.25;;;;;;;;4994513;28;46158;-73
2022/02/26 02:55:07;;;;;;;;;24.75;23.50;;;;;;;;4994594;28;45429;-73
2022/02/26 02:57:33;;;;;;;;;23.25;18.25;;;;;;;;4994528;28;47595;-73
2022/02/26 02:59:58;;;;;;;;;19.00;15.50;;;;;;;;4994532;28;45360;-73
2022/02/26 03:02:23;;;;;;;;;22.75;22.25;;;;;;;;4995178;28;45460;-73
2022/02/26 03:04:48;;;;;;;;;28.50;21.25;;;;;;;;4994065;28;46404;-73
2022/02/26 03:07:13;;;;;;;;;19.50;18.50;;;;;;;;4994331;28;45388;-73
2022/02/26 03:09:39;;;;;;;;;26.25;21.00;;;;;;;;4994258;28;45488;-73
2022/02/26 03:12:04;;;;;;;;;20.50;20.25;;;;;;;;4994208;28;46407;-73
2022/02/26 03:14:29;;;;;;;;;27.75;21.50;;;;;;;;4994198;28;45362;-73
2022/02/26 03:16:55;;;;;;;;;22.75;17.50;;;;;;;;4995116;28;45516;-73
2022/02/26 03:19:21;;;;;;;;;20.25;20.25;;;;;;;;4994491;28;45407;-71
2022/02/26 03:21:46;;;;;;;;;24.00;19.25;;;;;;;;4994311;28;47476;-74
2022/02/26 03:24:12;;;;;;;;;18.00;17.00;;;;;;;;4994437;28;45415;-73
2022/02/26 03:26:38;;;;;;;;;27.00;16.50;;;;;;;;4994267;28;45330;-74
2022/02/26 03:29:03;;;;;;;;;20.75;19.75;;;;;;;;4994594;28;45299;-72
2022/02/26 03:31:28;;;;;;;;;22.25;19.50;;;;;;;;4994029;28;46791;-74
2022/02/26 03:33:53;;;;;;;;;21.50;19.00;;;;;;;;4994167;28;45601;-74
2022/02/26 03:36:19;;;;;;;;;24.00;22.00;;;;;;;;4994500;28;45261;-74
2022/02/26 03:38:44;;;;;;;;;18.50;17.00;;;;;;;;4976636;28;45573;-73
2022/02/26 03:41:13;;;;;;;;;24.50;21.00;;;;;;;;4960590;28;46164;-73
2022/02/26 03:43:38;;;;;;;;;18.75;18.25;;;;;;;;4993968;28;45734;-74
2022/02/26 03:46:04;;;;;;;;;24.50;23.00;;;;;;;;4994058;28;45389;-74
2022/02/26 03:48:29;;;;;;;;;24.50;21.25;;;;;;;;4994166;28;45372;-73
2022/02/26 03:50:54;;;;;;;;;22.75;19.00;;;;;;;;4993967;28;47276;-74
2022/02/26 03:53:19;;;;;;;;;21.50;19.00;;;;;;;;4994866;28;45704;-73
2022/02/26 03:55:44;;;;;;;;;28.00;20.50;;;;;;;;4994195;28;45508;-73
2022/02/26 03:58:10;;;;;;;;;24.50;22.50;;;;;;;;4993571;28;45425;-73
2022/02/26 04:00:35;;;;;;;;;29.75;21.00;;;;;;;;4993822;28;45484;-73
2022/02/26 04:03:00;;;;;;;;;26.75;21.00;;;;;;;;4976151;28;46059;-73
2022/02/26 04:05:25;;;;;;;;;29.25;24.00;;;;;;;;4994386;28;45451;-72
2022/02/26 04:07:51;;;;;;;;;24.00;22.00;;;;;;;;4993979;28;45497;-73
2022/02/26 04:10:16;;;;;;;;;23.00;22.25;;;;;;;;4993162;28;46541;-73
2022/02/26 04:12:41;;;;;;;;;22.25;21.75;;;;;;;;4992869;28;45343;-73
2022/02/26 04:15:07;;;;;;;;;23.00;20.00;;;;;;;;4993877;28;45423;-72
2022/02/26 04:17:32;;;;;;;;;31.25;25.75;;;;;;;;4996067;28;45596;-73
2022/02/26 04:19:57;;;;;;;;;32.00;24.75;;;;;;;;4997371;28;47136;-74
2022/02/26 04:22:22;;;;;;;;;26.25;22.25;;;;;;;;4997157;28;45483;-73
2022/02/26 04:24:48;;;;;;;;;29.75;28.50;;;;;;;;4997045;28;45483;-73
2022/02/26 04:27:13;;;;;;;;;31.25;21.50;;;;;;;;4996559;28;45472;-73
2022/02/26 04:29:38;;;;;;;;;26.50;21.75;;;;;;;;4997061;28;47272;-73
2022/02/26 04:32:04;;;;;;;;;33.75;26.25;;;;;;;;4997632;28;45386;-74
2022/02/26 04:34:29;;;;;;;;;34.50;30.25;;;;;;;;4997142;28;45372;-73
2022/02/26 04:36:54;;;;;;;;;24.00;21.00;;;;;;;;4997198;28;45503;-72
2022/02/26 04:39:19;;;;;;;;;25.75;23.75;;;;;;;;5011840;28;48194;-74
2022/02/26 04:41:45;;;;;;;;;30.50;26.00;;;;;;;;4996226;28;45385;-74
2022/02/26 04:44:10;;;;;;;;;25.75;23.50;;;;;;;;4997666;28;45489;-74
2022/02/26 04:46:35;;;;;;;;;25.75;21.25;;;;;;;;4996597;28;45440;-72
2022/02/26 04:49:00;;;;;;;;;30.50;27.75;;;;;;;;4996814;28;45506;-72
2022/02/26 04:51:25;;;;;;;;;26.00;24.00;;;;;;;;4996748;28;45313;-74
2022/02/26 04:53:51;;;;;;;;;28.75;24.75;;;;;;;;4997037;28;45618;-72
2022/02/26 04:56:16;;;;;;;;;27.25;23.75;;;;;;;;4996827;28;45722;-74
2022/02/26 04:58:41;;;;;;;;;26.00;22.50;;;;;;;;4996297;28;47145;-74
2022/02/26 05:01:06;;;;;;;;;25.50;20.00;;;;;;;;4996668;28;45346;-72
2022/02/26 05:03:32;;;;;;;;;27.25;27.00;;;;;;;;4996816;28;45346;-73
2022/02/26 05:05:57;;;;;;;;;26.00;24.75;;;;;;;;4996100;28;45449;-74
2022/02/26 05:08:23;;;;;;;;;27.25;25.75;;;;;;;;4996653;28;47128;-73
2022/02/26 05:10:48;;;;;;;;;47.00;40.00;;;;;;;;4995407;28;45422;-74
2022/02/26 05:13:13;;;;;;;;;30.25;27.00;;;;;;;;4996038;28;45474;-72
2022/02/26 05:15:39;;;;;;;;;32.50;26.75;;;;;;;;4995879;28;45427;-74
2022/02/26 05:18:04;;;;;;;;;30.50;25.25;;;;;;;;4995919;28;46130;-74
2022/02/26 05:20:30;;;;;;;;;30.25;28.25;;;;;;;;4996164;28;45298;-74
2022/02/26 05:22:56;;;;;;;;;29.25;25.75;;;;;;;;4996638;28;45562;-74
2022/02/26 05:25:21;;;;;;;;;32.25;27.00;;;;;;;;4995488;28;45412;-74
2022/02/26 05:27:46;;;;;;;;;21.75;17.50;;;;;;;;4994863;28;46355;-74
2022/02/26 05:30:12;;;;;;;;;29.00;25.25;;;;;;;;4995500;28;45471;-73
2022/02/26 05:32:38;;;;;;;;;24.50;24.25;;;;;;;;4996078;28;45417;-74
2022/02/26 05:35:04;;;;;;;;;32.50;28.25;;;;;;;;4996288;28;45784;-75
2022/02/26 05:37:29;;;;;;;;;29.50;29.00;;;;;;;;4995610;28;45538;-73
2022/02/26 05:39:54;;;;;;;;;25.25;25.25;;;;;;;;4995319;28;45480;-74
2022/02/26 05:42:20;;;;;;;;;29.75;29.00;;;;;;;;4995797;28;45575;-74
2022/02/26 05:44:45;;;;;;;;;30.00;28.25;;;;;;;;4995956;28;45224;-72
2022/02/26 05:47:10;;;;;;;;;22.00;20.00;;;;;;;;4996245;28;45463;-72
2022/02/26 05:49:35;;;;;;;;;27.00;25.50;;;;;;;;4995646;28;45570;-72
2022/02/26 05:52:01;;;;;;;;;22.75;21.75;;;;;;;;4995530;28;45539;-73
2022/02/26 05:54:26;;;;;;;;;27.75;23.50;;;;;;;;4994953;28;45498;-73
2022/02/26 05:56:51;;;;;;;;;28.25;24.50;;;;;;;;4995319;28;46054;-73
2022/02/26 05:59:16;;;;;;;;;26.00;23.00;;;;;;;;4995697;28;45513;-73
2022/02/26 06:01:41;;;;;;;;;29.25;25.50;;;;;;;;4995048;28;45555;-71
2022/02/26 06:04:07;;;;;;;;;29.25;26.75;;;;;;;;4995072;28;45524;-73
2022/02/26 06:06:32;;;;;;;;;30.00;27.25;;;;;;;;4994175;28;45346;-74
2022/02/26 06:08:57;;;;;;;;;38.50;30.75;;;;;;;;4994105;28;45848;-72
2022/02/26 06:11:22;;;;;;;;;28.75;24.00;;;;;;;;4995463;28;45480;-73
2022/02/26 06:13:47;;;;;;;;;44.00;34.75;;;;;;;;4994823;28;45368;-73
2022/02/26 06:16:13;;;;;;;;;31.00;24.00;;;;;;;;4994477;28;46996;-73
2022/02/26 06:18:39;;;;;;;;;28.50;25.75;;;;;;;;4995018;28;45321;-73
2022/02/26 06:21:04;;;;;;;;;24.00;22.25;;;;;;;;4995266;28;45329;-73
2022/02/26 06:23:29;;;;;;;;;25.75;21.50;;;;;;;;4994815;28;45415;-73
2022/02/26 06:25:54;;;;;;;;;22.75;22.25;;;;;;;;4995331;28;45468;-73
2022/02/26 06:28:19;;;;;;;;;34.75;28.00;;;;;;;;4995013;28;45650;-74
2022/02/26 06:30:45;;;;;;;;;26.50;23.25;;;;;;;;4995310;28;45443;-73
2022/02/26 06:33:13;;;;;;;;;26.50;25.50;;;;;;;;4995272;28;45416;-74
2022/02/26 06:35:38;;;;;;;;;25.00;20.75;;;;;;;;4994358;28;47068;-74
2022/02/26 06:38:03;;;;;;;;;32.25;30.75;;;;;;;;4977457;28;45456;-73
2022/02/26 06:40:29;;;;;;;;;27.75;26.75;;;;;;;;4994423;28;45388;-73
2022/02/26 06:42:54;;;;;;;;;30.50;27.50;;;;;;;;4994587;28;45592;-74
2022/02/26 06:45:19;;;;;;;;;30.00;26.00;;;;;;;;4994421;28;45365;-73
2022/02/26 06:47:45;;;;;;;;;32.50;28.75;;;;;;;;4994209;28;45398;-73
2022/02/26 06:50:10;;;;;;;;;28.25;27.75;;;;;;;;4995542;28;45626;-73
2022/02/26 06:52:35;;;;;;;;;28.75;25.50;;;;;;;;4993883;28;45437;-73
2022/02/26 06:55:01;;;;;;;;;24.25;24.25;;;;;;;;4994298;28;47306;-74
2022/02/26 06:57:26;;;;;;;;;35.25;30.25;;;;;;;;5009422;28;45499;-73
2022/02/26 06:59:51;;;;;;;;;32.75;28.50;;;;;;;;4995378;28;45310;-73
2022/02/26 07:02:16;;;;;;;;;26.75;23.75;;;;;;;;4994883;28;45338;-73
2022/02/26 07:04:42;;;;;;;;;31.00;30.50;;;;;;;;4993874;28;46203;-73
2022/02/26 07:07:07;;;;;;;;;30.50;25.50;;;;;;;;4993224;28;45271;-72
2022/02/26 07:09:33;;;;;;;;;34.00;31.50;;;;;;;;4975839;28;45393;-72
2022/02/26 07:11:58;;;;;;;;;25.25;25.25;;;;;;;;4994047;28;45476;-74
2022/02/26 07:14:23;;;;;;;;;35.25;31.00;;;;;;;;4994463;28;47032;-74
2022/02/26 07:16:49;;;;;;;;;34.00;29.75;;;;;;;;4993976;28;45495;-74
2022/02/26 07:19:14;;;;;;;;;31.00;28.25;;;;;;;;4994308;28;45342;-74
2022/02/26 07:21:40;;;;;;;;;29.75;24.50;;;;;;;;4993847;28;45498;-72
2022/02/26 07:24:05;;;;;;;;;42.00;33.25;;;;;;;;4993678;28;47019;-73
2022/02/26 07:26:30;;;;;;;;;28.00;27.00;;;;;;;;4993359;28;45306;-72
2022/02/26 07:28:56;;;;;;;;;33.25;28.75;;;;;;;;4994390;28;45497;-70
2022/02/26 07:31:21;;;;;;;;;31.25;28.25;;;;;;;;4993703;28;45449;-70
2022/02/26 07:33:47;;;;;;;;;25.25;21.50;;;;;;;;4993224;28;46085;-74
2022/02/26 07:36:13;;;;;;;;;29.25;27.25;;;;;;;;4993174;28;45307;-74
2022/02/26 07:38:39;;;;;;;;;27.50;24.75;;;;;;;;4993811;28;46116;-76
2022/02/26 07:41:06;;;;;;;;;17.25;16.25;;;;;;;;4994221;28;45405;-74
2022/02/26 07:43:32;;;;;;;;;26.75;19.75;;;;;;;;4993883;28;46119;-73
2022/02/26 07:45:58;;;;;;;;;29.25;25.00;;;;;;;;4993641;28;45432;-75
2022/02/26 07:48:23;;;;;;;;;30.75;26.00;;;;;;;;4993483;28;45468;-71
2022/02/26 07:50:48;;;;;;;;;15.25;15.00;;;;;;;;4992984;28;45624;-74
2022/02/26 07:53:13;;;;;;;;;27.00;24.25;;;;;;;;4996138;28;46978;-74
2022/02/26 07:55:39;;;;;;;;;23.75;21.00;;;;;;;;4996924;28;45352;-76
2022/02/26 07:58:04;;;;;;;;;27.00;23.00;;;;;;;;4997339;28;45512;-75
2022/02/26 08:00:30;;;;;;;;;21.75;19.75;;;;;;;;4997204;28;45385;-75
2022/02/26 08:02:55;;;;;;;;;29.25;21.75;;;;;;;;4996528;28;47245;-76
2022/02/26 08:05:20;;;;;;;;;31.50;22.25;;;;;;;;4996868;28;45413;-74
2022/02/26 08:07:45;;;;;;;;;19.00;18.00;;;;;;;;4996143;28;45298;-73
2022/02/26 08:10:11;;;;;;;;;22.50;20.00;;;;;;;;4996277;28;45483;-74
2022/02/26 08:12:36;;;;;;;;;20.75;18.00;;;;;;;;4996239;28;47626;-76
2022/02/26 08:15:02;;;;;;;;;19.50;17.75;;;;;;;;4995977;28;45525;-74
2022/02/26 08:17:28;;;;;;;;;19.00;17.25;;;;;;;;4995762;28;45412;-75
2022/02/26 08:19:53;;;;;;;;;23.25;20.50;;;;;;;;4995640;28;45255;-74
2022/02/26 08:22:18;;;;;;;;;23.00;15.25;;;;;;;;4996037;28;45380;-73
2022/02/26 08:24:43;;;;;;;;;15.75;13.75;;;;;;;;4996467;28;45493;-75
2022/02/26 08:27:09;;;;;;;;;18.50;15.00;;;;;;;;4995900;28;45465;-75
2022/02/26 08:29:34;;;;;;;;;13.25;11.25;;;;;;;;4996371;28;45472;-75
2022/02/26 08:31:59;;;;;;;;;16.50;16.00;;;;;;;;4996656;28;46361;-74
2022/02/26 08:34:24;;;;;;;;;14.50;13.50;;;;;;;;4996094;28;45425;-75
2022/02/26 08:36:50;;;;;;;;;13.50;13.50;;;;;;;;4996142;28;45405;-75
2022/02/26 08:39:16;;;;;;;;;13.50;12.00;;;;;;;;4996038;28;45239;-75
2022/02/26 08:41:41;;;;;;;;;16.25;13.00;;;;;;;;4995915;28;46107;-74
2022/02/26 08:44:06;;;;;;;;;17.25;13.00;;;;;;;;4996324;28;45500;-74
2022/02/26 08:46:32;;;;;;;;;22.50;14.25;;;;;;;;4995956;28;45370;-74
2022/02/26 08:48:57;;;;;;;;;17.00;15.00;;;;;;;;5010429;28;45439;-74
2022/02/26 08:51:22;;;;;;;;;17.50;16.25;;;;;;;;4978159;28;46977;-74
2022/02/26 08:53:48;;;;;;;;;14.50;13.00;;;;;;;;4995633;28;45506;-73
2022/02/26 08:56:13;;;;;;;;;12.25;10.50;;;;;;;;4996486;28;45541;-74
2022/02/26 08:58:38;;;;;;;;;11.75;11.75;;;;;;;;4995578;28;45337;-73
2022/02/26 09:01:03;;;;;;;;;15.00;13.25;;;;;;;;4995913;28;45509;-74
2022/02/26 09:03:28;;;;;;;;;13.50;10.25;;;;;;;;4993664;28;45508;-73
2022/02/26 09:05:54;;;;;;;;;9.75;9.75;;;;;;;;4995882;28;45516;-74
2022/02/26 09:08:19;;;;;;;;;14.75;12.00;;;;;;;;4996271;28;45329;-75
2022/02/26 09:10:44;;;;;;;;;11.50;11.25;;;;;;;;4995356;28;47089;-79
2022/02/26 09:13:09;;;;;;;;;9.00;9.00;;;;;;;;4995413;28;45395;-74
2022/02/26 09:15:34;;;;;;;;;17.00;17.00;;;;;;;;4995565;28;45383;-76
2022/02/26 09:18:00;;;;;;;;;27.25;25.25;;;;;;;;4994932;28;45256;-74
2022/02/26 09:20:25;;;;;;;;;12.00;10.00;;;;;;;;4995245;28;46463;-74
2022/02/26 09:22:50;;;;;;;;;12.25;9.00;;;;;;;;4995412;28;45309;-74
2022/02/26 09:25:16;;;;;;;;;9.50;6.75;;;;;;;;4996702;28;45377;-74
2022/02/26 09:27:43;;;;;;;;;8.00;8.00;;;;;;;;4995094;28;45464;-75
2022/02/26 09:30:09;;;;;;;;;10.00;6.75;;;;;;;;4994603;28;46873;-74
2022/02/26 09:32:34;;;;;;;;;22.00;17.50;;;;;;;;4994815;28;45372;-75
2022/02/26 09:34:59;;;;;;;;;6.25;5.25;;;;;;;;4995346;28;45313;-76
2022/02/26 09:37:25;;;;;;;;;7.00;7.00;;;;;;;;4995269;28;45467;-75
2022/02/26 09:39:51;;;;;;;;;12.25;12.25;;;;;;;;4995698;28;46019;-82
2022/02/26 09:42:19;;;;;;;;;7.75;7.25;;;;;;;;4994499;28;45433;-76
2022/02/26 09:44:45;;;;;;;;;10.00;9.75;;;;;;;;4994390;28;45395;-77
2022/02/26 09:47:10;;;;;;;;;19.50;17.75;;;;;;;;4994816;28;45468;-77
2022/02/26 09:49:35;;;;;;;;;9.25;6.00;;;;;;;;4993767;28;45325;-76
2022/02/26 09:52:01;;;;;;;;;10.50;7.75;;;;;;;;4993264;28;45444;-75
2022/02/26 09:54:27;;;;;;;;;9.00;8.00;;;;;;;;4975588;28;45545;-74
2022/02/26 09:56:52;;;;;;;;;8.00;8.00;;;;;;;;4993956;28;45452;-75
2022/02/26 09:59:17;;;;;;;;;11.50;10.25;;;;;;;;4994480;28;45321;-75
2022/02/26 10:01:55;;;;;;;;;9.25;8.50;;;;;;;;4993737;28;45404;-74
2022/02/26 10:04:20;;;;;;;;;10.50;7.50;;;;;;;;4976740;28;45564;-73
2022/02/26 10:06:46;;;;;;;;;8.00;6.50;;;;;;;;4994233;28;45571;-74
2022/02/26 10:09:14;;;;;;;;;9.00;7.00;;;;;;;;4994084;28;46368;-74
2022/02/26 10:11:40;;;;;;;;;14.75;12.25;;;;;;;;4995425;28;45282;-74
2022/02/26 10:14:05;;;;;;;;;12.50;11.50;;;;;;;;4995011;28;45453;-74
2022/02/26 10:16:46;;;;;;;;;15.50;12.75;;;;;;;;4994644;28;45716;-74
2022/02/26 10:19:11;;;;;;;;;20.50;16.25;;;;;;;;4994570;28;46233;-74
2022/02/26 10:21:41;;;;;;;;;26.75;23.25;;;;;;;;4994516;28;46672;-73
2022/02/26 10:24:06;;;;;;;;;13.25;11.50;;;;;;;;4993958;28;45408;-73
2022/02/26 10:26:32;;;;;;;;;16.50;15.50;;;;;;;;4994495;28;45451;-73
2022/02/26 10:29:10;;;;;;;;;10.25;7.00;;;;;;;;4994225;28;47134;-74
2022/02/26 10:31:45;;;;;;;;;12.25;10.50;;;;;;;;4993164;28;45554;-75
2022/02/26 10:34:23;;;;;;;;;10.75;9.00;;;;;;;;4993328;28;45268;-74
2022/02/26 10:36:58;;;;;;;;;7.25;5.25;;;;;;;;4993537;28;45385;-74
2022/02/26 10:39:27;;;;;;;;;5.25;5.25;;;;;;;;4993500;28;46485;-75
2022/02/26 10:41:52;;;;;;;;;8.25;8.25;;;;;;;;4977235;28;45496;-73
2022/02/26 10:44:20;;;;;;;;;7.50;5.00;;;;;;;;4994088;28;45327;-74
2022/02/26 10:46:45;;;;;;;;;4.75;3.00;;;;;;;;4992992;28;45329;-74
2022/02/26 10:49:13;;;;;;;;;4.75;3.75;;;;;;;;4993286;28;46052;-74
2022/02/26 10:51:40;;;;;;;;;4.00;4.00;;;;;;;;4994022;28;45552;-74
2022/02/26 10:54:10;;;;;;;;;5.75;3.75;;;;;;;;4993994;28;45387;-74
2022/02/26 10:56:36;;;;;;;;;2.25;2.25;;;;;;;;4994087;28;45221;-73
2022/02/26 10:59:01;;;;;;;;;4.00;3.00;;;;;;;;4993823;28;46389;-74
2022/02/26 11:01:26;;;;;;;;;10.00;7.75;;;;;;;;4989912;28;45544;-74
2022/02/26 11:03:58;;;;;;;;;6.75;4.50;;;;;;;;4986454;28;45495;-73
2022/02/26 11:06:24;;;;;;;;;9.75;6.00;;;;;;;;4993370;28;45595;-73
2022/02/26 11:08:49;;;;;;;;;3.00;3.00;;;;;;;;4993240;28;47056;-74
2022/02/26 11:11:16;;;;;;;;;3.25;3.25;;;;;;;;4993931;28;45379;-74
2022/02/26 11:13:42;;;;;;;;;6.00;5.50;;;;;;;;4993139;28;45635;-73
2022/02/26 11:16:09;;;;;;;;;4.50;4.00;;;;;;;;4993185;28;45552;-74
2022/02/26 11:18:48;;;;;;;;;8.00;3.75;;;;;;;;4993276;28;46131;-74
2022/02/26 11:21:17;;;;;;;;;5.25;5.25;;;;;;;;4993137;28;45357;-74
2022/02/26 11:23:43;;;;;;;;;4.00;2.50;;;;;;;;4993040;28;45362;-73
2022/02/26 11:26:09;;;;;;;;;2.75;1.50;;;;;;;;4993101;28;45437;-74
2022/02/26 11:28:36;;;;;;;;;3.00;2.00;;;;;;;;4992290;28;46697;-74
2022/02/26 11:31:04;;;;;;;;;5.75;3.00;;;;;;;;4992403;28;45315;-74
2022/02/26 11:33:30;;;;;;;;;3.50;3.50;;;;;;;;4992775;28;46278;-75
2022/02/26 11:35:56;;;;;;;;;5.00;4.50;;;;;;;;4992881;28;45420;-74
2022/02/26 11:38:22;;;;;;;;;7.75;5.00;;;;;;;;4994099;28;47131;-73
2022/02/26 11:40:51;;;;;;;;;14.50;13.50;;;;;;;;4992428;28;45452;-75
2022/02/26 11:43:33;;;;;;;;;3.25;3.00;;;;;;;;4992266;28;45549;-74
2022/02/26 11:46:15;;;;;;;;;3.75;3.75;;;;;;;;4992497;28;45500;-75
2022/02/26 11:48:41;;;;;;;;;5.75;3.00;;;;;;;;4993182;28;46351;-74
2022/02/26 11:51:09;;;;;;;;;8.00;4.50;;;;;;;;4992974;28;45289;-75
2022/02/26 11:53:40;;;;;;;;;27.75;21.75;;;;;;;;4993085;28;45616;-72
2022/02/26 11:56:08;;;;;;;;;5.50;5.50;;;;;;;;4990731;28;45282;-73
2022/02/26 11:58:34;;;;;;;;;12.25;10.50;;;;;;;;4991884;28;46360;-74
2022/02/26 12:01:01;;;;;;;;;7.50;7.00;;;;;;;;4992101;28;45539;-74
2022/02/26 12:03:29;;;;;;;;;4.00;2.67;;;;;;;;4991428;28;45367;-75
2022/02/26 12:06:16;;;;;;;;;4.00;2.00;;;;;;;;4976619;28;45460;-74
2022/02/26 12:08:47;;;;;;;;;15.25;14.25;;;;;;;;4974308;28;47044;-74
2022/02/26 12:11:21;;;;;;;;;15.00;14.75;;;;;;;;4992508;28;45561;-74
2022/02/26 12:13:47;;;;;;;;;6.75;5.75;;;;;;;;4992541;28;45520;-74
2022/02/26 12:16:17;;;;;;;;;5.00;3.33;;;;;;;;4992210;28;45489;-74
2022/02/26 12:18:47;;;;;;;;;6.75;4.75;;;;;;;;4992084;28;45375;-74
2022/02/26 12:21:13;;;;;;;;;3.33;3.33;;;;;;;;4990938;28;45461;-73
2022/02/26 12:23:43;;;;;;;;;2.75;2.75;;;;;;;;4992749;28;45354;-74
2022/02/26 12:26:10;;;;;;;;;5.00;3.75;;;;;;;;4990809;28;45587;-73
2022/02/26 12:28:36;;;;;;;;;4.00;4.00;;;;;;;;4992506;28;47301;-75
2022/02/26 12:31:02;;;;;;;;;3.67;2.00;;;;;;;;4992212;28;45434;-75
2022/02/26 12:33:36;;;;;;;;;5.00;4.00;;;;;;;;4992622;28;45485;-73
2022/02/26 12:36:08;;;;;;;;;6.00;2.33;;;;;;;;4992267;28;45415;-75
2022/02/26 12:38:33;;;;;;;;;5.00;3.67;;;;;;;;4994776;28;45451;-74
2022/02/26 12:40:59;;;;;;;;;4.50;3.50;;;;;;;;4995633;28;45408;-75
2022/02/26 12:43:28;;;;;;;;;4.00;4.00;;;;;;;;5011061;28;45593;-74
2022/02/26 12:45:54;;;;;;;;;3.25;3.25;;;;;;;;4995115;28;45329;-75
2022/02/26 12:48:19;;;;;;;;;5.00;3.67;;;;;;;;4995385;28;45572;-74
2022/02/26 12:50:45;;;;;;;;;3.33;1.33;;;;;;;;4995632;28;45390;-74
2022/02/26 12:53:10;;;;;;;;;11.50;10.75;;;;;;;;4978116;28;45444;-76
2022/02/26 12:55:35;;;;;;;;;4.50;4.50;;;;;;;;4995056;28;45425;-74
2022/02/26 12:58:01;;;;;;;;;3.00;2.00;;;;;;;;4995242;28;45969;-75
2022/02/26 13:00:27;;;;;;;;;4.00;3.00;;;;;;;;4995394;28;45619;-75
2022/02/26 13:02:52;;;;;;;;;6.33;3.67;;;;;;;;4962209;28;45422;-76
2022/02/26 13:05:18;;;;;;;;;2.67;2.67;;;;;;;;4995799;28;45517;-75
2022/02/26 13:07:43;;;;;;;;;3.33;3.33;;;;;;;;4994655;28;45624;-74
2022/02/26 13:10:09;;;;;;;;;4.67;3.33;;;;;;;;4995048;28;45476;-75
2022/02/26 13:12:35;;;;;;;;;4.00;4.00;;;;;;;;4994899;28;45482;-74
2022/02/26 13:15:05;;;;;;;;;4.67;2.67;;;;;;;;4995240;28;45511;-74
2022/02/26 13:17:34;;;;;;;;;7.67;5.00;;;;;;;;4995226;28;45448;-75
2022/02/26 13:20:00;;;;;;;;;4.00;4.00;;;;;;;;4995528;28;45421;-74
2022/02/26 13:22:26;;;;;;;;;9.00;9.00;;;;;;;;4994967;28;45625;-75
2022/02/26 13:24:51;;;;;;;;;5.67;5.67;;;;;;;;4994786;28;45543;-74
2022/02/26 13:27:21;;;;;;;;;6.33;5.33;;;;;;;;4994904;28;47175;-75
2022/02/26 13:29:47;;;;;;;;;5.00;5.00;;;;;;;;4977060;28;45434;-73
2022/02/26 13:32:13;;;;;;;;;11.50;9.50;;;;;;;;4995323;28;45393;-74
2022/02/26 13:34:41;;;;;;;;;7.67;6.00;;;;;;;;4994767;28;45493;-74
2022/02/26 13:37:07;;;;;;;;;3.33;3.33;;;;;;;;4993492;28;47092;-75
2022/02/26 13:39:32;;;;;;;;;8.33;7.33;;;;;;;;4994301;28;45437;-75
2022/02/26 13:41:58;;;;;;;;;6.00;4.67;;;;;;;;4994550;28;45342;-74
2022/02/26 13:44:29;;;;;;;;;7.00;7.00;;;;;;;;4994905;28;45373;-75
2022/02/26 13:46:55;;;;;;;;;12.33;10.33;;;;;;;;4994565;28;46310;-75
2022/02/26 13:49:20;;;;;;;;;7.33;6.00;;;;;;;;4993667;28;45321;-74
2022/02/26 13:51:46;;;;;;;;;3.00;3.00;;;;;;;;5009372;28;45384;-73
2022/02/26 13:54:15;;;;;;;;;8.33;6.33;;;;;;;;4994077;28;45555;-73
2022/02/26 13:56:41;;;;;;;;;16.00;14.75;;;;;;;;4994453;28;46100;-75
2022/02/26 13:59:07;;;;;;;;;9.00;9.00;;;;;;;;4995131;28;45230;-74
2022/02/26 14:01:48;;;;;;;;;5.67;3.33;;;;;;;;4994787;28;45436;-75
2022/02/26 14:04:19;;;;;;;;;4.67;4.67;;;;;;;;4995406;28;45400;-74
2022/02/26 14:06:46;;;;;;;;;6.00;5.00;;;;;;;;4994129;28;46322;-74
2022/02/26 14:09:25;;;;;;;;;10.33;6.67;;;;;;;;4994085;28;45539;-74
2022/02/26 14:11:52;;;;;;;;;7.67;6.67;;;;;;;;4994422;28;45332;-73
2022/02/26 14:14:28;;;;;;;;;7.00;6.00;;;;;;;;4995109;28;45627;-75
2022/02/26 14:17:10;;;;;;;;;10.00;7.67;;;;;;;;4994397;28;46324;-73
2022/02/26 14:19:39;;;;;;;;;5.00;5.00;;;;;;;;4994671;28;45433;-77